Time;durP1;ratioP1;P1;durP2;ratioP2;P2;SDS_P1;SDS_P2;PMS_P1;PMS_P2;Temp;Humidity;BMP_temperature;BMP_pressure;BME280_temperature;BME280_humidity;BME280_pressure;Samples;Min_cycle;Max_cycle;Signal;HPM_P1;HPM_P2
2023/04/25 00:00:52;;;;;;;6.43;2.95;;;23.10;53.30;;;;;;4843477;29;20050;-74
2023/04/25 00:03:19;;;;;;;4.03;2.90;;;23.30;53.50;;;;;;4843332;29;20030;-75
2023/04/25 00:05:45;;;;;;;3.65;2.42;;;23.10;53.40;;;;;;4843571;29;20122;-75
2023/04/25 00:08:11;;;;;;;4.20;2.75;;;23.10;53.40;;;;;;4843613;29;20121;-75
2023/04/25 00:10:37;;;;;;;5.65;2.80;;;23.00;53.50;;;;;;4842626;29;20498;-75
2023/04/25 00:13:03;;;;;;;4.63;2.72;;;23.00;53.60;;;;;;4843478;29;20053;-75
2023/04/25 00:15:30;;;;;;;5.97;3.40;;;23.10;53.70;;;;;;4842370;29;20076;-75
2023/04/25 00:17:57;;;;;;;3.38;2.90;;;22.90;53.60;;;;;;4843398;29;20097;-75
2023/04/25 00:20:23;;;;;;;5.50;2.25;;;22.90;53.80;;;;;;4841793;29;20037;-75
2023/04/25 00:22:49;;;;;;;3.13;2.85;;;23.00;53.70;;;;;;4843167;29;20053;-75
2023/04/25 00:25:15;;;;;;;3.17;2.25;;;23.00;53.50;;;;;;4841967;29;20050;-75
2023/04/25 00:27:41;;;;;;;3.53;2.50;;;23.10;53.40;;;;;;4843373;29;20479;-75
2023/04/25 00:30:08;;;;;;;3.38;2.83;;;23.10;53.30;;;;;;4852483;29;20027;-74
2023/04/25 00:32:34;;;;;;;6.15;2.95;;;23.10;53.30;;;;;;4824581;29;20117;-74
2023/04/25 00:35:00;;;;;;;7.22;2.67;;;23.10;53.40;;;;;;4824680;29;20998;-75
2023/04/25 00:37:26;;;;;;;3.45;2.50;;;23.20;53.40;;;;;;4838654;29;20552;-75
2023/04/25 00:39:54;;;;;;;7.03;2.30;;;23.10;53.40;;;;;;4824771;29;20122;-75
2023/04/25 00:42:21;;;;;;;4.25;2.70;;;23.10;53.60;;;;;;4838045;29;20094;-75
2023/04/25 00:44:47;;;;;;;4.50;2.67;;;23.10;53.50;;;;;;4838707;29;20476;-75
2023/04/25 00:47:15;;;;;;;4.20;2.72;;;23.00;53.60;;;;;;4823081;29;20042;-75
2023/04/25 00:49:40;;;;;;;2.90;2.60;;;23.00;53.80;;;;;;4838550;29;20042;-75
2023/04/25 00:52:07;;;;;;;6.53;2.42;;;23.00;53.70;;;;;;4824300;29;20048;-74
2023/04/25 00:54:33;;;;;;;5.00;2.35;;;23.00;53.70;;;;;;4824495;29;20041;-75
2023/04/25 00:57:00;;;;;;;3.00;2.70;;;23.10;53.80;;;;;;4838279;29;20483;-74
2023/04/25 00:59:28;;;;;;;6.15;3.10;;;23.10;53.90;;;;;;4837975;29;20107;-75
2023/04/25 01:01:54;;;;;;;3.42;2.10;;;23.10;53.90;;;;;;4822786;29;20770;-75
2023/04/25 01:04:21;;;;;;;3.35;2.35;;;23.10;53.90;;;;;;4824004;29;20066;-75
2023/04/25 01:06:47;;;;;;;3.60;2.67;;;23.10;54.00;;;;;;4823191;29;20090;-75
2023/04/25 01:09:14;;;;;;;9.15;2.42;;;23.00;53.90;;;;;;4838116;29;20129;-75
2023/04/25 01:11:40;;;;;;;3.70;2.92;;;22.90;54.00;;;;;;4838417;29;20395;-75
2023/04/25 01:14:06;;;;;;;3.08;2.60;;;23.00;53.90;;;;;;4823789;29;20038;-75
2023/04/25 01:16:33;;;;;;;5.80;2.72;;;23.00;53.70;;;;;;4824111;29;20041;-75
2023/04/25 01:18:59;;;;;;;7.57;2.58;;;23.10;53.80;;;;;;4826917;29;20050;-75
2023/04/25 01:21:27;;;;;;;5.22;2.47;;;23.00;53.80;;;;;;4840702;29;20383;-75
2023/04/25 01:23:54;;;;;;;4.00;3.17;;;22.90;53.90;;;;;;4840956;29;20058;-75
2023/04/25 01:26:22;;;;;;;4.13;2.72;;;22.90;54.10;;;;;;4841948;29;20045;-75
2023/04/25 01:28:49;;;;;;;3.47;2.65;;;23.00;54.20;;;;;;4840786;29;20558;-75
2023/04/25 01:31:16;;;;;;;2.50;2.10;;;22.90;54.20;;;;;;4842114;29;20120;-75
2023/04/25 01:33:44;;;;;;;5.90;2.53;;;22.90;54.00;;;;;;4840595;29;20044;-75
2023/04/25 01:36:11;;;;;;;3.75;2.45;;;22.90;54.00;;;;;;4856188;29;20491;-75
2023/04/25 01:38:37;;;;;;;4.57;2.80;;;22.90;54.00;;;;;;4856161;29;20034;-75
2023/04/25 01:41:03;;;;;;;8.45;2.70;;;22.80;53.70;;;;;;4840865;29;20427;-75
2023/04/25 01:43:29;;;;;;;8.45;3.28;;;22.90;53.90;;;;;;4855702;29;20125;-75
2023/04/25 01:45:56;;;;;;;6.53;2.40;;;22.90;52.90;;;;;;4825759;29;20133;-74
2023/04/25 01:48:23;;;;;;;5.60;2.65;;;22.90;53.80;;;;;;4855937;29;20049;-75
2023/04/25 01:50:49;;;;;;;3.42;2.08;;;22.90;54.00;;;;;;4842053;29;20038;-75
2023/04/25 01:53:15;;;;;;;4.30;2.30;;;22.90;54.10;;;;;;4855679;29;20059;-74
2023/04/25 01:55:43;;;;;;;6.70;2.45;;;22.80;54.00;;;;;;4837576;29;20490;-75
2023/04/25 01:58:13;;;;;;;3.33;2.70;;;22.90;54.10;;;;;;4840515;29;20034;-75
2023/04/25 02:01:08;;;;;;;3.75;2.58;;;22.80;54.00;;;;;;4802614;29;20055;-75
2023/04/25 02:03:42;;;;;;;4.80;2.72;;;22.90;53.90;;;;;;4802884;29;20054;-74
2023/04/25 02:06:16;;;;;;;8.10;2.70;;;22.90;53.90;;;;;;4802657;29;20059;-75
2023/04/25 02:08:44;;;;;;;5.05;2.88;;;22.70;54.10;;;;;;4802776;29;20039;-75
2023/04/25 02:11:11;;;;;;;2.80;2.42;;;22.90;54.40;;;;;;4802534;29;20399;-75
2023/04/25 02:13:44;;;;;;;4.50;2.47;;;22.90;54.40;;;;;;4802692;29;20054;-75
2023/04/25 02:16:25;;;;;;;3.58;2.53;;;22.80;54.00;;;;;;4801916;29;20133;-75
2023/04/25 02:18:52;;;;;;;2.65;2.42;;;22.90;53.90;;;;;;4802474;29;20095;-75
2023/04/25 02:21:19;;;;;;;3.85;2.00;;;22.90;54.00;;;;;;4802480;29;20054;-75
2023/04/25 02:23:48;;;;;;;6.65;2.65;;;22.90;54.10;;;;;;4802364;29;20485;-74
2023/04/25 02:26:14;;;;;;;5.80;2.55;;;22.90;54.00;;;;;;4820761;29;20075;-74
2023/04/25 02:28:41;;;;;;;3.10;2.45;;;22.90;54.00;;;;;;4821189;29;20054;-75
2023/04/25 02:31:07;;;;;;;3.72;2.15;;;22.90;54.00;;;;;;4812284;29;20138;-74
2023/04/25 02:33:34;;;;;;;3.00;2.45;;;22.90;54.20;;;;;;4787631;29;20051;-75
2023/04/25 02:36:00;;;;;;;8.65;2.63;;;22.90;54.10;;;;;;4802256;29;20059;-75
2023/04/25 02:38:26;;;;;;;4.00;2.15;;;22.90;54.20;;;;;;4789401;29;20054;-75
2023/04/25 02:40:52;;;;;;;2.25;2.05;;;22.90;54.10;;;;;;4787565;29;20184;-75
2023/04/25 02:43:18;;;;;;;3.55;2.58;;;22.90;54.10;;;;;;4802339;29;20082;-74
2023/04/25 02:45:44;;;;;;;8.77;2.95;;;22.90;54.00;;;;;;4802397;29;20118;-75
2023/04/25 02:48:11;;;;;;;3.60;2.67;;;22.90;54.00;;;;;;4802030;29;20108;-74
2023/04/25 02:50:37;;;;;;;4.80;2.88;;;22.80;54.00;;;;;;4802426;29;20078;-74
2023/04/25 02:53:03;;;;;;;8.00;2.28;;;22.80;53.90;;;;;;4802058;29;20549;-75
2023/04/25 02:55:36;;;;;;;3.65;2.47;;;22.80;53.90;;;;;;4802132;29;20039;-75
2023/04/25 02:58:03;;;;;;;2.30;2.10;;;22.70;53.90;;;;;;4817348;29;20043;-75
2023/04/25 03:00:43;;;;;;;3.35;2.30;;;22.70;54.00;;;;;;4820344;29;20244;-75
2023/04/25 03:03:09;;;;;;;5.05;2.20;;;22.80;53.70;;;;;;4820503;29;20042;-75
2023/04/25 03:05:35;;;;;;;3.30;2.47;;;22.70;54.10;;;;;;4804932;29;20058;-74
2023/04/25 03:08:01;;;;;;;3.63;2.30;;;22.80;54.20;;;;;;4805319;29;20034;-75
2023/04/25 03:10:28;;;;;;;2.50;2.30;;;22.70;54.20;;;;;;4820399;29;20035;-75
2023/04/25 03:12:56;;;;;;;4.72;2.30;;;22.70;53.90;;;;;;4820403;29;20085;-74
2023/04/25 03:15:22;;;;;;;5.35;2.33;;;22.70;54.20;;;;;;4820216;29;20062;-74
2023/04/25 03:17:48;;;;;;;5.35;2.95;;;22.70;54.20;;;;;;4820452;29;20050;-75
2023/04/25 03:20:15;;;;;;;2.90;2.45;;;22.80;54.10;;;;;;4819917;29;20515;-75
2023/04/25 03:22:41;;;;;;;2.90;2.30;;;22.70;53.90;;;;;;4820228;29;20450;-75
2023/04/25 03:25:07;;;;;;;4.10;2.22;;;22.80;54.00;;;;;;4807760;29;20111;-75
2023/04/25 03:27:34;;;;;;;4.15;2.40;;;22.90;54.00;;;;;;4833111;29;20121;-75
2023/04/25 03:30:00;;;;;;;6.65;2.90;;;22.80;53.80;;;;;;4844070;29;20457;-75
2023/04/25 03:32:26;;;;;;;3.88;2.50;;;22.90;53.90;;;;;;4858506;29;20037;-75
2023/04/25 03:34:52;;;;;;;7.95;2.88;;;22.80;53.80;;;;;;4843014;29;20395;-75
2023/04/25 03:37:18;;;;;;;7.75;3.13;;;22.80;53.90;;;;;;4843903;29;20529;-75
2023/04/25 03:39:44;;;;;;;8.30;2.55;;;22.70;53.70;;;;;;4843040;29;20037;-74
2023/04/25 03:42:11;;;;;;;2.97;1.83;;;22.80;53.90;;;;;;4842487;29;20045;-74
2023/04/25 03:44:37;;;;;;;3.95;2.75;;;22.80;53.90;;;;;;4857974;29;20042;-75
2023/04/25 03:47:03;;;;;;;2.28;2.00;;;22.90;54.00;;;;;;4842671;29;20038;-75
2023/04/25 03:49:29;;;;;;;2.60;2.40;;;22.70;53.80;;;;;;4842672;29;20033;-75
2023/04/25 03:52:03;;;;;;;5.68;2.53;;;22.80;53.80;;;;;;4842725;29;20045;-75
2023/04/25 03:54:34;;;;;;;5.32;2.70;;;22.80;53.80;;;;;;4819491;29;20041;-75
2023/04/25 03:57:13;;;;;;;4.28;2.65;;;22.80;52.70;;;;;;4808911;29;20046;-74
2023/04/25 03:59:39;;;;;;;9.23;2.42;;;22.70;53.70;;;;;;4825284;29;20137;-74
2023/04/25 04:02:08;;;;;;;3.72;2.65;;;22.90;53.00;;;;;;4824150;29;20052;-74
2023/04/25 04:04:36;;;;;;;4.45;2.80;;;22.80;52.60;;;;;;4823721;29;20099;-75
2023/04/25 04:07:02;;;;;;;3.65;2.38;;;22.70;53.10;;;;;;4824321;29;20039;-75
2023/04/25 04:09:31;;;;;;;5.05;2.33;;;22.70;54.00;;;;;;4823753;29;20034;-75
2023/04/25 04:12:01;;;;;;;4.88;2.30;;;22.80;53.50;;;;;;4823969;29;20081;-75
2023/04/25 04:14:29;;;;;;;20.08;3.13;;;22.70;53.90;;;;;;4823766;29;20042;-75
2023/04/25 04:16:55;;;;;;;4.88;2.78;;;22.70;53.80;;;;;;4808728;29;20062;-76
2023/04/25 04:19:22;;;;;;;7.60;1.90;;;22.80;54.10;;;;;;4823444;29;20042;-76
2023/04/25 04:22:17;;;;;;;5.68;2.05;;;22.80;56.80;;;;;;4822136;29;20046;-75
2023/04/25 04:24:46;;;;;;;3.42;2.83;;;23.20;58.90;;;;;;4822258;29;20035;-75
2023/04/25 04:27:14;;;;;;;3.70;2.60;;;23.40;57.80;;;;;;4792775;29;20133;-77
2023/04/25 04:29:53;;;;;;;3.05;1.98;;;23.40;59.20;;;;;;4807041;29;20205;-73
2023/04/25 04:32:32;;;;;;;6.75;2.65;;;23.50;54.30;;;;;;4807135;29;20051;-73
2023/04/25 04:34:59;;;;;;;6.35;2.47;;;23.30;52.90;;;;;;4786036;30;20055;-74
2023/04/25 04:37:25;;;;;;;3.05;2.75;;;23.40;51.80;;;;;;4756260;30;20458;-72
2023/04/25 04:39:52;;;;;;;6.70;2.40;;;23.40;51.10;;;;;;4771149;30;20409;-74
2023/04/25 04:42:37;;;;;;;7.68;3.00;;;23.40;50.90;;;;;;4753010;30;20114;-74
2023/04/25 04:45:16;;;;;;;4.70;2.10;;;23.20;50.80;;;;;;4767747;30;20055;-74
2023/04/25 04:48:00;;;;;;;4.03;2.53;;;23.10;51.10;;;;;;4767716;30;20461;-74
2023/04/25 04:50:32;;;;;;;3.40;2.78;;;23.20;51.40;;;;;;4767918;30;20497;-72
2023/04/25 04:53:21;;;;;;;4.35;2.00;;;23.20;51.80;;;;;;4731940;30;20149;-74
2023/04/25 04:55:56;;;;;;;4.13;2.65;;;23.30;52.00;;;;;;4732340;30;20147;-74
2023/04/25 04:58:22;;;;;;;4.68;2.55;;;23.30;52.20;;;;;;4738357;30;20137;-72
2023/04/25 05:01:02;;;;;;;5.22;3.00;;;23.30;52.20;;;;;;4749722;30;20082;-73
2023/04/25 05:03:48;;;;;;;3.47;2.22;;;23.30;51.00;;;;;;4749683;30;20052;-73
2023/04/25 05:06:44;;;;;;;4.53;2.30;;;23.40;52.30;;;;;;4749521;30;20044;-72
2023/04/25 05:09:26;;;;;;;6.68;2.72;;;23.40;52.10;;;;;;4749874;30;20044;-73
2023/04/25 05:12:06;;;;;;;7.53;2.92;;;23.40;52.50;;;;;;4749672;30;20409;-74
2023/04/25 05:14:50;;;;;;;10.10;3.40;;;23.20;48.00;;;;;;4749534;30;20044;-73
2023/04/25 05:17:35;;;;;;;4.20;2.50;;;23.40;48.40;;;;;;4749520;30;20086;-74
2023/04/25 05:20:13;;;;;;;7.18;2.97;;;23.30;48.20;;;;;;4749899;30;20063;-75
2023/04/25 05:22:58;;;;;;;4.95;3.05;;;23.30;49.40;;;;;;4749279;30;20056;-74
2023/04/25 05:25:44;;;;;;;5.70;2.95;;;23.20;49.50;;;;;;4750262;30;20056;-74
2023/04/25 05:28:41;;;;;;;5.53;3.15;;;23.30;50.70;;;;;;4749213;30;20107;-75
2023/04/25 05:31:27;;;;;;;6.35;3.83;;;23.40;48.60;;;;;;4749449;30;20052;-73
2023/04/25 05:34:16;;;;;;;5.47;2.95;;;23.40;50.90;;;;;;4749397;30;20040;-75
2023/04/25 05:37:04;;;;;;;8.50;3.35;;;23.40;49.70;;;;;;4734583;30;20064;-74
2023/04/25 05:39:32;;;;;;;8.27;5.72;;;23.30;50.50;;;;;;4749106;30;20156;-73
2023/04/25 05:42:16;;;;;;;9.07;3.38;;;23.40;49.90;;;;;;4746621;30;20056;-73
2023/04/25 05:45:08;;;;;;;7.40;3.60;;;23.30;47.80;;;;;;4696401;30;20077;-73
2023/04/25 05:47:57;;;;;;;12.95;3.67;;;23.40;47.70;;;;;;4696645;30;20050;-73
2023/04/25 05:50:56;;;;;;;5.40;2.53;;;23.40;46.40;;;;;;4733366;30;20060;-73
2023/04/25 05:53:45;;;;;;;0.90;0.90;;;23.20;46.50;;;;;;4715162;30;20077;-72
2023/04/25 05:56:13;;;;;;;1.52;1.27;;;23.20;49.20;;;;;;4696514;30;20149;-74
2023/04/25 05:58:40;;;;;;;0.88;0.88;;;23.40;52.60;;;;;;4680716;30;20512;-72
2023/04/25 06:01:07;;;;;;;2.78;1.17;;;23.50;52.50;;;;;;4679884;30;20068;-76
2023/04/25 06:03:33;;;;;;;0.80;0.80;;;23.70;51.80;;;;;;4694364;30;20093;-79
2023/04/25 06:05:59;;;;;;;6.82;3.35;;;23.70;51.40;;;;;;4664940;30;20154;-74
2023/04/25 06:08:26;;;;;;;2.88;2.28;;;23.70;50.50;;;;;;4676920;30;20058;-75
2023/04/25 06:10:52;;;;;;;5.47;3.10;;;23.70;53.30;;;;;;4676752;30;20063;-75
2023/04/25 06:13:18;;;;;;;8.23;3.15;;;23.80;50.70;;;;;;4676878;30;20046;-76
2023/04/25 06:15:44;;;;;;;5.43;2.72;;;23.70;50.60;;;;;;4676781;30;20451;-71
2023/04/25 06:18:11;;;;;;;3.50;2.78;;;23.70;50.10;;;;;;4676193;30;20066;-70
2023/04/25 06:20:37;;;;;;;5.25;2.33;;;23.70;50.60;;;;;;4693900;30;20093;-70
2023/04/25 06:23:03;;;;;;;3.80;2.40;;;23.70;48.50;;;;;;4698586;30;20485;-71
2023/04/25 06:25:52;;;;;;;4.50;1.92;;;23.80;49.50;;;;;;4763487;30;20064;-71
2023/04/25 06:28:19;;;;;;;6.57;2.15;;;23.90;49.90;;;;;;4766014;30;20134;-71
2023/04/25 06:30:45;;;;;;;3.63;2.45;;;23.70;47.60;;;;;;4775085;30;20143;-72
2023/04/25 06:33:16;;;;;;;4.28;1.88;;;23.80;49.50;;;;;;4798691;29;20480;-73
2023/04/25 06:35:42;;;;;;;6.53;2.65;;;23.90;50.30;;;;;;4768843;30;20054;-74
2023/04/25 06:38:11;;;;;;;10.50;3.15;;;24.00;50.20;;;;;;4768929;30;20079;-72
2023/04/25 06:40:39;;;;;;;5.55;3.35;;;23.90;50.10;;;;;;4768363;29;20504;-74
2023/04/25 06:43:06;;;;;;;7.32;3.20;;;23.90;49.90;;;;;;4754299;29;20122;-72
2023/04/25 06:45:43;;;;;;;3.40;2.97;;;23.80;49.50;;;;;;4768964;29;20097;-74
2023/04/25 06:48:09;;;;;;;6.43;2.60;;;24.00;47.10;;;;;;4768969;29;20042;-75
2023/04/25 06:50:35;;;;;;;7.97;2.85;;;23.80;49.20;;;;;;4769128;29;20522;-75
2023/04/25 06:53:01;;;;;;;4.60;2.70;;;23.90;49.70;;;;;;4769455;30;20122;-73
2023/04/25 06:55:29;;;;;;;2.58;2.38;;;23.80;49.70;;;;;;4769111;29;20547;-75
2023/04/25 06:58:16;;;;;;;7.10;3.45;;;23.90;49.70;;;;;;4769151;29;20225;-74
2023/04/25 07:00:58;;;;;;;4.37;3.10;;;23.80;49.40;;;;;;4768886;29;20082;-75
2023/04/25 07:03:25;;;;;;;4.25;2.80;;;23.80;46.50;;;;;;4808094;29;20061;-71
2023/04/25 07:05:56;;;;;;;6.97;3.00;;;23.80;48.80;;;;;;4824880;29;20030;-73
2023/04/25 07:08:23;;;;;;;5.97;2.95;;;23.70;49.70;;;;;;4824814;29;20048;-72
2023/04/25 07:10:50;;;;;;;4.75;3.05;;;23.70;48.60;;;;;;4826017;29;20110;-75
2023/04/25 07:13:16;;;;;;;9.18;2.50;;;23.80;48.40;;;;;;4839630;29;20469;-75
2023/04/25 07:15:43;;;;;;;7.97;3.63;;;23.70;51.10;;;;;;4824266;29;20034;-73
2023/04/25 07:18:10;;;;;;;6.93;3.30;;;23.70;49.40;;;;;;4839725;29;20107;-73
2023/04/25 07:20:36;;;;;;;9.75;3.33;;;23.60;50.20;;;;;;4824459;29;20045;-73
2023/04/25 07:23:03;;;;;;;9.85;3.28;;;23.70;49.70;;;;;;4839804;29;20053;-74
2023/04/25 07:25:30;;;;;;;9.38;3.10;;;23.60;51.60;;;;;;4842926;29;20038;-71
2023/04/25 07:27:56;;;;;;;5.00;2.80;;;23.70;52.30;;;;;;4842244;29;20482;-72
2023/04/25 07:30:22;;;;;;;7.30;2.92;;;23.70;50.60;;;;;;4842633;29;20109;-71
2023/04/25 07:32:49;;;;;;;3.30;2.90;;;23.70;52.50;;;;;;4843578;29;20062;-70
2023/04/25 07:35:16;;;;;;;8.70;2.88;;;23.70;52.40;;;;;;4843514;29;20069;-71
2023/04/25 07:37:42;;;;;;;5.65;2.30;;;23.70;52.70;;;;;;4841968;29;20037;-70
2023/04/25 07:40:12;;;;;;;3.22;2.42;;;23.70;52.50;;;;;;4842544;29;20045;-70
2023/04/25 07:42:44;;;;;;;5.60;3.17;;;23.70;52.30;;;;;;4827845;29;20041;-68
2023/04/25 07:45:12;;;;;;;5.53;3.25;;;23.70;52.50;;;;;;4842355;29;20042;-70
2023/04/25 07:47:39;;;;;;;6.90;2.88;;;23.90;52.10;;;;;;4826937;29;20501;-69
2023/04/25 07:50:07;;;;;;;5.78;2.83;;;23.70;51.60;;;;;;4838948;29;20395;-71
2023/04/25 07:52:33;;;;;;;5.68;3.33;;;23.90;52.60;;;;;;4842220;29;20550;-72
2023/04/25 07:55:07;;;;;;;8.13;3.90;;;23.90;52.40;;;;;;4857326;29;20485;-72
2023/04/25 07:57:54;;;;;;;5.38;3.50;;;23.80;51.30;;;;;;4786256;30;20078;-73
2023/04/25 08:00:20;;;;;;;3.85;3.25;;;23.90;52.40;;;;;;4786122;30;20059;-71
2023/04/25 08:02:53;;;;;;;7.78;3.42;;;23.80;53.00;;;;;;4786379;30;20088;-72
2023/04/25 08:05:20;;;;;;;6.43;3.50;;;23.90;53.60;;;;;;4786393;30;20051;-72
2023/04/25 08:07:51;;;;;;;7.07;3.72;;;23.90;51.90;;;;;;4786354;30;20108;-72
2023/04/25 08:10:17;;;;;;;10.02;3.90;;;23.80;52.70;;;;;;4786433;30;20055;-72
2023/04/25 08:12:43;;;;;;;4.78;3.50;;;23.90;52.80;;;;;;4771466;30;20047;-70
2023/04/25 08:15:10;;;;;;;4.82;2.78;;;23.70;52.60;;;;;;4785168;29;20055;-70
2023/04/25 08:17:38;;;;;;;5.80;3.20;;;23.80;53.20;;;;;;4786039;30;20047;-72
2023/04/25 08:20:06;;;;;;;7.20;3.63;;;23.70;51.60;;;;;;4786112;30;20047;-70
2023/04/25 08:22:33;;;;;;;5.70;3.58;;;23.70;51.90;;;;;;4771300;30;20088;-71
2023/04/25 08:25:23;;;;;;;9.13;2.70;;;23.80;53.80;;;;;;4786111;30;20085;-72
2023/04/25 08:27:49;;;;;;;9.10;3.08;;;23.70;53.70;;;;;;4785801;30;20463;-72
2023/04/25 08:30:17;;;;;;;12.20;3.33;;;23.90;53.20;;;;;;4786090;30;20047;-71
2023/04/25 08:32:43;;;;;;;7.38;3.53;;;24.00;52.70;;;;;;4771045;30;20079;-75
2023/04/25 08:35:27;;;;;;;6.95;3.58;;;23.90;51.20;;;;;;4824642;29;20488;-70
2023/04/25 08:37:53;;;;;;;4.93;3.67;;;23.80;52.20;;;;;;4841145;29;20046;-71
2023/04/25 08:40:28;;;;;;;7.05;2.97;;;23.80;52.40;;;;;;4841289;29;20045;-71
2023/04/25 08:43:17;;;;;;;5.63;2.47;;;23.90;53.60;;;;;;4842281;29;20045;-71
2023/04/25 08:45:43;;;;;;;6.78;3.20;;;23.80;54.00;;;;;;4842450;29;20049;-71
2023/04/25 08:48:16;;;;;;;4.68;2.78;;;23.90;54.00;;;;;;4823280;29;20069;-71
2023/04/25 08:50:52;;;;;;;6.25;3.13;;;23.90;52.20;;;;;;4837853;29;20380;-69
2023/04/25 08:53:29;;;;;;;6.50;3.33;;;24.00;56.30;;;;;;4838194;29;20129;-69
2023/04/25 08:56:01;;;;;;;3.33;2.35;;;23.90;58.20;;;;;;4837937;29;20051;-70
2023/04/25 08:58:28;;;;;;;4.18;3.15;;;24.00;58.50;;;;;;4838064;29;20667;-73
2023/04/25 09:00:55;;;;;;;3.50;3.20;;;24.00;55.30;;;;;;4840772;29;20137;-72
2023/04/25 09:03:24;;;;;;;6.93;3.28;;;24.10;56.00;;;;;;4841240;29;20042;-73
2023/04/25 09:05:51;;;;;;;7.75;3.15;;;24.00;53.90;;;;;;4841017;29;20113;-71
2023/04/25 09:08:18;;;;;;;8.98;3.83;;;23.90;55.30;;;;;;4840640;29;20033;-72
2023/04/25 09:10:44;;;;;;;4.80;3.35;;;24.00;54.90;;;;;;4840801;29;20042;-70
2023/04/25 09:13:23;;;;;;;6.75;3.58;;;23.90;54.40;;;;;;4825462;29;20452;-72
2023/04/25 09:16:08;;;;;;;4.15;2.88;;;24.00;54.40;;;;;;4841920;29;20132;-72
2023/04/25 09:18:43;;;;;;;3.70;3.30;;;23.90;54.80;;;;;;4840140;29;20162;-73
2023/04/25 09:21:11;;;;;;;4.80;3.13;;;24.00;53.50;;;;;;4839832;29;20041;-71
2023/04/25 09:23:43;;;;;;;6.68;2.83;;;23.90;54.80;;;;;;4840581;29;20117;-73
2023/04/25 09:26:14;;;;;;;6.40;3.03;;;24.10;54.50;;;;;;4855615;29;20076;-73
2023/04/25 09:28:42;;;;;;;4.00;2.67;;;23.90;54.00;;;;;;4841748;29;20046;-72
2023/04/25 09:31:12;;;;;;;4.30;3.33;;;24.00;53.10;;;;;;4840364;29;20122;-73
2023/04/25 09:33:45;;;;;;;9.43;3.60;;;24.00;51.30;;;;;;4855521;29;20049;-72
2023/04/25 09:36:13;;;;;;;3.47;2.72;;;24.10;49.50;;;;;;4839972;29;20057;-73
2023/04/25 09:39:00;;;;;;;7.00;3.15;;;24.20;50.50;;;;;;4840602;29;20030;-74
2023/04/25 09:41:29;;;;;;;10.45;3.97;;;24.30;52.90;;;;;;4839941;29;20486;-72
2023/04/25 09:43:59;;;;;;;6.53;3.60;;;24.40;53.30;;;;;;4840251;29;20038;-72
2023/04/25 09:46:36;;;;;;;5.55;3.60;;;24.50;54.20;;;;;;4839910;29;20073;-73
2023/04/25 09:49:08;;;;;;;7.72;3.85;;;24.60;57.60;;;;;;4841425;29;20034;-72
2023/04/25 09:51:56;;;;;;;11.32;4.25;;;25.10;58.70;;;;;;4840922;29;20056;-74
2023/04/25 09:54:23;;;;;;;8.98;4.60;;;25.00;48.80;;;;;;4819655;29;20074;-73
2023/04/25 09:57:01;;;;;;;7.32;4.72;;;24.90;48.20;;;;;;4800628;29;20373;-72
2023/04/25 09:59:31;;;;;;;6.50;4.20;;;24.70;49.30;;;;;;4787156;29;20106;-73
2023/04/25 10:01:58;;;;;;;6.93;3.50;;;24.60;49.70;;;;;;4773231;29;20134;-73
2023/04/25 10:04:35;;;;;;;5.95;3.65;;;24.70;51.20;;;;;;4751217;30;20390;-70
2023/04/25 10:07:08;;;;;;;4.57;3.28;;;24.50;51.10;;;;;;4751383;30;20554;-71
2023/04/25 10:09:39;;;;;;;5.25;3.92;;;24.60;55.90;;;;;;4751231;30;20039;-70
2023/04/25 10:12:07;;;;;;;4.38;3.67;;;24.70;56.60;;;;;;4766110;30;20051;-72
2023/04/25 10:14:34;;;;;;;6.32;3.70;;;24.90;58.00;;;;;;4766059;30;20047;-73
2023/04/25 10:17:01;;;;;;;5.97;3.85;;;24.70;55.90;;;;;;4766082;30;20414;-71
2023/04/25 10:19:27;;;;;;;6.03;3.92;;;24.70;53.90;;;;;;4751239;30;20059;-72
2023/04/25 10:21:59;;;;;;;8.32;4.10;;;24.70;54.00;;;;;;4766010;30;20123;-72
2023/04/25 10:24:26;;;;;;;4.00;3.05;;;24.60;54.40;;;;;;4765836;30;20046;-70
2023/04/25 10:26:53;;;;;;;5.53;4.00;;;24.50;54.30;;;;;;4781727;29;20215;-72
2023/04/25 10:29:25;;;;;;;3.70;3.38;;;24.40;54.20;;;;;;4784063;29;20059;-71
2023/04/25 10:31:51;;;;;;;;;;;24.40;54.50;;;;;;4803203;29;20055;-71
2023/04/25 10:34:18;;;;;;;6.18;4.10;;;24.50;49.10;;;;;;4820319;29;19913;-71
2023/04/25 10:36:53;;;;;;;4.88;3.80;;;24.60;48.60;;;;;;4819792;29;20514;-72
2023/04/25 10:39:24;;;;;;;3.28;2.97;;;24.60;49.20;;;;;;4820008;29;20399;-70
2023/04/25 10:41:56;;;;;;;7.18;3.60;;;24.40;50.00;;;;;;4804726;29;20158;-71
2023/04/25 10:44:22;;;;;;;5.37;3.53;;;24.50;56.80;;;;;;4804640;29;20054;-70
2023/04/25 10:46:48;;;;;;;7.35;3.25;;;24.50;55.90;;;;;;4820052;29;20494;-71
2023/04/25 10:49:34;;;;;;;7.32;4.25;;;24.60;55.60;;;;;;4819912;29;20062;-71
2023/04/25 10:52:25;;;;;;;5.43;3.90;;;24.50;55.70;;;;;;4820056;29;20043;-71
2023/04/25 10:54:54;;;;;;;6.07;4.18;;;24.50;55.50;;;;;;4819748;29;20047;-70
2023/04/25 10:57:36;;;;;;;3.58;2.63;;;24.40;55.20;;;;;;4822176;29;20054;-72
2023/04/25 11:00:05;;;;;;;5.25;3.78;;;24.50;55.30;;;;;;4821832;29;20063;-73
2023/04/25 11:02:31;;;;;;;3.00;2.80;;;24.40;54.70;;;;;;4837468;29;20072;-72
2023/04/25 11:04:58;;;;;;;4.43;3.63;;;24.40;55.00;;;;;;4840425;29;20052;-73
2023/04/25 11:07:44;;;;;;;6.72;3.85;;;24.30;55.00;;;;;;4840112;29;20041;-71
2023/04/25 11:10:10;;;;;;;4.40;3.33;;;24.20;55.00;;;;;;4840133;29;20524;-72
2023/04/25 11:12:36;;;;;;;3.40;2.85;;;24.30;55.10;;;;;;4840338;29;20041;-71
2023/04/25 11:15:07;;;;;;;4.43;3.97;;;24.20;54.90;;;;;;4840156;29;20038;-72
2023/04/25 11:17:33;;;;;;;7.10;3.63;;;24.30;54.70;;;;;;4838907;29;20068;-71
2023/04/25 11:20:00;;;;;;;7.50;3.85;;;24.20;55.20;;;;;;4840403;29;20492;-71
2023/04/25 11:22:27;;;;;;;9.57;3.85;;;24.30;55.20;;;;;;4840269;29;20046;-71
2023/04/25 11:24:54;;;;;;;8.55;3.53;;;24.20;54.80;;;;;;4833962;29;20095;-72
2023/04/25 11:27:21;;;;;;;5.50;3.60;;;24.30;55.00;;;;;;4821702;29;20045;-72
2023/04/25 11:29:50;;;;;;;8.95;3.58;;;24.10;56.10;;;;;;4822007;29;20436;-72
2023/04/25 11:32:17;;;;;;;4.43;3.35;;;24.10;57.50;;;;;;4822299;29;20127;-72
2023/04/25 11:34:45;;;;;;;7.70;3.30;;;24.00;57.00;;;;;;4822152;29;20034;-72
2023/04/25 11:37:13;;;;;;;5.10;3.33;;;24.00;56.70;;;;;;4821853;29;20046;-71
2023/04/25 11:39:45;;;;;;;5.03;2.95;;;24.10;55.80;;;;;;4821869;29;20042;-71
2023/04/25 11:42:11;;;;;;;5.38;3.65;;;24.10;55.70;;;;;;4821883;29;20541;-70
2023/04/25 11:44:39;;;;;;;3.80;2.42;;;24.10;54.10;;;;;;4822123;29;20034;-70
2023/04/25 11:47:05;;;;;;;4.55;3.20;;;24.00;55.90;;;;;;4821946;29;20038;-73
2023/04/25 11:49:32;;;;;;;5.70;3.25;;;24.00;55.90;;;;;;4827238;29;20039;-70
2023/04/25 11:51:58;;;;;;;3.47;2.90;;;24.10;56.10;;;;;;4825374;29;20054;-71
2023/04/25 11:54:24;;;;;;;4.57;3.40;;;24.00;54.20;;;;;;4825844;29;20034;-72
2023/04/25 11:56:50;;;;;;;4.95;3.33;;;24.10;55.10;;;;;;4824940;29;20051;-73
2023/04/25 11:59:16;;;;;;;4.57;3.08;;;24.00;54.40;;;;;;4825211;29;20041;-73
2023/04/25 12:01:50;;;;;;;3.80;3.40;;;24.10;54.50;;;;;;4825292;29;20066;-77
2023/04/25 12:04:23;;;;;;;6.20;3.85;;;24.10;53.80;;;;;;4825048;29;20159;-73
2023/04/25 12:06:54;;;;;;;4.15;3.50;;;24.10;53.90;;;;;;4825312;29;20042;-70
2023/04/25 12:09:29;;;;;;;4.93;4.13;;;24.10;53.40;;;;;;4824806;29;20049;-70
2023/04/25 12:12:02;;;;;;;7.50;4.07;;;24.30;52.70;;;;;;4825193;29;20042;-71
2023/04/25 12:14:32;;;;;;;5.75;4.75;;;24.20;52.60;;;;;;4824713;29;20384;-71
2023/04/25 12:16:59;;;;;;;5.05;3.38;;;24.10;52.10;;;;;;4824523;29;20118;-70
2023/04/25 12:19:26;;;;;;;4.07;3.38;;;24.10;52.70;;;;;;4824637;29;20487;-71
2023/04/25 12:21:52;;;;;;;6.28;3.85;;;24.00;52.80;;;;;;4824906;29;20677;-70
2023/04/25 12:24:25;;;;;;;5.38;4.18;;;24.10;52.50;;;;;;4824670;29;20039;-71
2023/04/25 12:27:04;;;;;;;5.20;4.05;;;24.10;51.70;;;;;;4824765;29;20042;-71
2023/04/25 12:29:34;;;;;;;5.88;4.25;;;24.00;51.60;;;;;;4823250;29;20045;-72
2023/04/25 12:32:03;;;;;;;12.85;4.32;;;24.00;51.60;;;;;;4824459;29;20592;-71
2023/04/25 12:34:31;;;;;;;5.80;3.80;;;23.90;53.20;;;;;;4824420;29;20041;-71
2023/04/25 12:36:57;;;;;;;9.38;3.92;;;23.90;53.20;;;;;;4822931;29;20117;-71
2023/04/25 12:39:27;;;;;;;7.53;4.97;;;23.90;52.00;;;;;;4824130;29;20499;-71
2023/04/25 12:41:54;;;;;;;5.63;3.95;;;23.90;51.40;;;;;;4824105;29;20057;-71
2023/04/25 12:44:20;;;;;;;3.08;2.72;;;23.80;52.60;;;;;;4824398;29;20134;-71
2023/04/25 12:46:47;;;;;;;4.13;2.92;;;23.80;52.60;;;;;;4824057;29;20558;-71
2023/04/25 12:49:14;;;;;;;8.27;3.45;;;23.70;53.60;;;;;;4824064;29;20042;-71
2023/04/25 12:51:41;;;;;;;5.43;2.80;;;23.70;51.90;;;;;;4822763;29;20037;-71
2023/04/25 12:54:08;;;;;;;4.15;3.20;;;23.70;53.10;;;;;;4824262;29;20429;-71
2023/04/25 12:56:35;;;;;;;7.03;4.15;;;23.80;52.30;;;;;;4823816;29;20134;-71
2023/04/25 12:59:05;;;;;;;5.55;3.60;;;23.70;53.70;;;;;;4823695;29;20404;-71
2023/04/25 13:01:31;;;;;;;5.30;4.10;;;23.80;52.00;;;;;;4823322;29;20062;-70
2023/04/25 13:03:58;;;;;;;8.18;4.30;;;23.70;53.50;;;;;;4838086;29;20042;-70